createdAt,value
2023-04-01T00:00:53.161Z,7.20
2023-04-01T00:03:20.250Z,7.10
2023-04-01T00:05:46.973Z,7.00
2023-04-01T00:08:13.603Z,7.10
2023-04-01T00:10:40.188Z,7.10
2023-04-01T00:13:06.844Z,7.20
2023-04-01T00:15:34.023Z,7.20
2023-04-01T00:18:01.679Z,7.20
2023-04-01T00:20:28.500Z,7.20
2023-04-01T00:22:55.934Z,7.30
2023-04-01T00:25:22.887Z,7.20
2023-04-01T00:27:50.302Z,7.20
2023-04-01T00:30:17.238Z,7.20
2023-04-01T00:32:43.951Z,7.20
2023-04-01T00:35:11.177Z,7.30
2023-04-01T00:37:37.955Z,7.20
2023-04-01T00:40:06.156Z,7.30
2023-04-01T00:42:33.043Z,7.20
2023-04-01T00:44:59.888Z,7.10
2023-04-01T00:47:27.604Z,7.20
2023-04-01T00:49:54.948Z,7.20
2023-04-01T00:52:23.708Z,7.20
2023-04-01T00:54:53.091Z,7.30
2023-04-01T00:57:28.252Z,7.30
2023-04-01T00:59:55.851Z,7.40
2023-04-01T01:02:22.848Z,7.40
2023-04-01T01:04:49.523Z,7.60
2023-04-01T01:07:32.839Z,7.50
2023-04-01T01:10:02.102Z,7.50
2023-04-01T01:12:36.409Z,7.50
2023-04-01T01:15:02.959Z,7.50
2023-04-01T01:17:34.078Z,7.50
2023-04-01T01:20:27.105Z,7.60
2023-04-01T01:23:08.949Z,7.70
2023-04-01T01:25:54.287Z,7.70
2023-04-01T01:28:20.964Z,7.70
2023-04-01T01:30:59.641Z,7.70
2023-04-01T01:33:46.563Z,7.70
2023-04-01T01:36:14.743Z,7.60
2023-04-01T01:38:41.435Z,7.70
2023-04-01T01:41:08.791Z,7.70
2023-04-01T01:43:40.552Z,7.70
2023-04-01T01:46:12.939Z,7.60
2023-04-01T01:48:41.038Z,7.70
2023-04-01T01:51:08.058Z,7.70
2023-04-01T01:53:34.710Z,7.60
2023-04-01T01:56:01.666Z,7.60
2023-04-01T01:58:45.517Z,7.60
2023-04-01T02:01:23.191Z,7.70
2023-04-01T02:06:18.650Z,7.70
2023-04-01T02:08:52.275Z,7.70
2023-04-01T02:11:22.914Z,7.80
2023-04-01T02:13:58.022Z,7.70
2023-04-01T02:16:27.702Z,7.60
2023-04-01T02:18:56.361Z,7.80
2023-04-01T02:21:24.779Z,7.70
2023-04-01T02:23:53.318Z,7.70
2023-04-01T02:26:20.580Z,7.70
2023-04-01T02:28:47.403Z,7.70
2023-04-01T02:31:14.627Z,7.60
2023-04-01T02:33:41.904Z,7.70
2023-04-01T02:36:11.784Z,7.80
2023-04-01T02:38:38.430Z,7.70
2023-04-01T02:41:06.160Z,7.80
2023-04-01T02:43:32.896Z,7.80
2023-04-01T02:45:59.462Z,7.70
2023-04-01T02:48:26.158Z,7.70
2023-04-01T02:50:52.728Z,7.60
2023-04-01T02:53:19.285Z,7.60
2023-04-01T02:55:45.953Z,7.60
2023-04-01T02:58:12.596Z,7.60
2023-04-01T03:00:39.140Z,7.60
2023-04-01T03:03:06.174Z,7.60
2023-04-01T03:05:33.022Z,7.60
2023-04-01T03:07:59.824Z,7.50
2023-04-01T03:10:26.413Z,7.40
2023-04-01T03:12:53.016Z,7.40
2023-04-01T03:15:19.564Z,7.40
2023-04-01T03:17:47.739Z,7.40
2023-04-01T03:20:14.478Z,7.30
2023-04-01T03:22:43.037Z,7.30
2023-04-01T03:25:10.673Z,7.40
2023-04-01T03:27:37.268Z,7.30
2023-04-01T03:30:04.836Z,7.40
2023-04-01T03:32:31.556Z,7.30
2023-04-01T03:34:58.215Z,7.30
2023-04-01T03:37:24.888Z,7.20
2023-04-01T03:39:51.632Z,7.20
2023-04-01T03:42:18.320Z,7.10
2023-04-01T03:44:44.870Z,7.10
2023-04-01T03:47:11.587Z,7.10
2023-04-01T03:49:38.179Z,7.10
2023-04-01T03:52:04.738Z,7.10
2023-04-01T03:54:31.408Z,7.10
2023-04-01T03:56:58.943Z,7.10
2023-04-01T03:59:25.591Z,7.10
2023-04-01T04:01:52.151Z,7.20
2023-04-01T04:04:18.814Z,7.00
2023-04-01T04:06:45.410Z,7.10
2023-04-01T04:09:11.960Z,7.10
2023-04-01T04:11:38.504Z,7.00
2023-04-01T04:14:05.249Z,7.00
2023-04-01T04:16:31.928Z,7.00
2023-04-01T04:18:58.599Z,7.00
2023-04-01T04:21:25.173Z,7.10
2023-04-01T04:23:52.435Z,7.10
2023-04-01T04:26:19.001Z,7.20
2023-04-01T04:28:45.688Z,7.20
2023-04-01T04:31:12.542Z,7.20
2023-04-01T04:33:39.153Z,7.20
2023-04-01T04:36:06.015Z,7.10
2023-04-01T04:38:32.689Z,7.10
2023-04-01T04:40:59.312Z,7.10
2023-04-01T04:43:26.157Z,7.10
2023-04-01T04:45:52.790Z,7.10
2023-04-01T04:48:20.083Z,7.10
2023-04-01T04:50:50.646Z,7.20
2023-04-01T04:53:18.172Z,7.20
2023-04-01T04:55:45.525Z,7.10
2023-04-01T04:58:12.403Z,7.20
2023-04-01T05:00:38.999Z,7.30
2023-04-01T05:03:05.816Z,7.30
2023-04-01T05:05:32.678Z,7.50
2023-04-01T05:07:59.435Z,7.50
2023-04-01T05:10:26.092Z,7.60
2023-04-01T05:12:52.651Z,7.60
2023-04-01T05:15:19.237Z,7.60
2023-04-01T05:17:45.857Z,7.70
2023-04-01T05:20:15.775Z,7.60
2023-04-01T05:22:42.629Z,7.80
2023-04-01T05:25:09.293Z,7.70
2023-04-01T05:27:35.976Z,7.70
2023-04-01T05:30:02.802Z,7.60
2023-04-01T05:32:29.393Z,8.90
2023-04-01T05:34:55.998Z,7.70
2023-04-01T05:37:23.832Z,7.80
2023-04-01T05:39:50.422Z,7.80
2023-04-01T05:42:17.303Z,7.70
2023-04-01T05:44:43.869Z,7.70
2023-04-01T05:47:10.464Z,7.80
2023-04-01T05:49:37.016Z,7.80
2023-04-01T05:52:03.547Z,7.80
2023-04-01T05:54:30.648Z,7.80
2023-04-01T05:56:57.208Z,7.90
2023-04-01T05:59:23.789Z,7.90
2023-04-01T06:01:50.363Z,7.90
2023-04-01T06:04:17.883Z,8.00
2023-04-01T06:06:44.757Z,8.10
2023-04-01T06:09:31.035Z,7.90
2023-04-01T06:12:17.114Z,8.00
2023-04-01T06:15:04.124Z,7.90
2023-04-01T06:20:25.000Z,8.00
2023-04-01T06:23:11.849Z,8.10
2023-04-01T06:25:55.141Z,8.20
2023-04-01T06:28:39.117Z,8.10
2023-04-01T06:31:09.187Z,8.20
2023-04-01T06:33:54.627Z,8.20
2023-04-01T06:36:33.549Z,8.30
2023-04-01T06:39:15.330Z,8.40
2023-04-01T06:42:03.762Z,8.40
2023-04-01T06:44:51.077Z,8.40
2023-04-01T06:47:20.474Z,8.50
2023-04-01T06:50:06.025Z,8.40
2023-04-01T06:52:32.574Z,8.60
2023-04-01T06:55:09.407Z,8.70
2023-04-01T06:57:40.729Z,8.70
2023-04-01T07:00:27.902Z,8.80
2023-04-01T07:03:04.335Z,9.00
2023-04-01T07:05:33.729Z,9.00
2023-04-01T07:08:02.266Z,9.10
2023-04-01T07:11:02.812Z,9.20
2023-04-01T07:13:32.185Z,9.30
2023-04-01T07:16:22.185Z,9.30
2023-04-01T07:18:50.945Z,9.30
2023-04-01T07:21:24.408Z,9.20
2023-04-01T07:23:51.858Z,9.10
2023-04-01T07:26:22.386Z,9.10
2023-04-01T07:28:49.483Z,9.10
2023-04-01T07:31:18.924Z,9.10
2023-04-01T07:33:51.200Z,9.30
2023-04-01T07:36:26.857Z,9.20
2023-04-01T07:38:58.920Z,9.20
2023-04-01T07:41:47.964Z,9.40
2023-04-01T07:44:23.746Z,9.50
2023-04-01T07:49:29.355Z,9.70
2023-04-01T07:52:14.802Z,9.80
2023-04-01T07:54:49.649Z,9.80
2023-04-01T07:57:19.273Z,10.30
2023-04-01T07:59:48.975Z,10.10
2023-04-01T08:02:23.159Z,10.10
2023-04-01T08:05:04.945Z,9.90
2023-04-01T08:07:50.145Z,10.00
2023-04-01T08:10:26.247Z,10.10
2023-04-01T08:12:59.409Z,10.20
2023-04-01T08:15:28.478Z,10.40
2023-04-01T08:18:04.899Z,10.80
2023-04-01T08:20:37.457Z,10.60
2023-04-01T08:23:11.500Z,11.10
2023-04-01T08:25:38.865Z,11.60
2023-04-01T08:28:24.356Z,11.60
2023-04-01T08:31:11.855Z,11.40
2023-04-01T08:33:40.012Z,11.50
2023-04-01T08:36:13.079Z,11.90
2023-04-01T08:38:48.606Z,11.90
2023-04-01T08:41:25.004Z,11.80
2023-04-01T08:43:51.523Z,12.10
2023-04-01T08:46:27.499Z,12.10
2023-04-01T08:49:00.356Z,11.80
2023-04-01T08:51:29.880Z,11.60
2023-04-01T08:54:11.814Z,11.90
2023-04-01T08:56:47.417Z,12.40
2023-04-01T08:59:16.736Z,12.40
2023-04-01T09:02:05.736Z,13.00
2023-04-01T09:04:35.309Z,13.00
2023-04-01T09:07:19.712Z,12.70
2023-04-01T09:10:04.947Z,12.80
2023-04-01T09:12:43.319Z,12.30
2023-04-01T09:15:28.197Z,12.70
2023-04-01T09:18:13.750Z,13.60
2023-04-01T09:20:46.903Z,14.30
2023-04-01T09:23:30.384Z,14.00
2023-04-01T09:26:00.070Z,14.00
2023-04-01T09:28:39.614Z,13.70
2023-04-01T09:31:11.233Z,13.20
2023-04-01T09:33:54.468Z,12.60
2023-04-01T09:36:45.285Z,12.00
2023-04-01T09:39:30.881Z,12.30
2023-04-01T09:42:03.276Z,12.50
2023-04-01T09:44:32.927Z,12.30
2023-04-01T09:46:59.448Z,12.70
2023-04-01T09:49:44.806Z,12.30
2023-04-01T09:52:27.734Z,11.90
2023-04-01T09:55:00.435Z,12.70
2023-04-01T09:57:37.743Z,12.60
2023-04-01T10:00:17.345Z,12.70
2023-04-01T10:02:43.910Z,12.80
2023-04-01T10:05:23.916Z,12.60
2023-04-01T10:07:53.624Z,12.40
2023-04-01T10:10:37.058Z,12.20
2023-04-01T10:13:03.657Z,12.20
2023-04-01T10:15:33.448Z,12.30
2023-04-01T10:18:09.543Z,12.60
2023-04-01T10:20:52.571Z,13.00
2023-04-01T10:23:22.152Z,13.30
2023-04-01T10:25:48.670Z,13.20
2023-04-01T10:28:30.720Z,12.90
2023-04-01T10:30:57.272Z,13.00
2023-04-01T10:33:33.282Z,13.60
2023-04-01T10:36:18.749Z,13.50
2023-04-01T10:38:51.451Z,13.80
2023-04-01T10:41:36.727Z,13.30
2023-04-01T10:44:22.191Z,13.40
2023-04-01T10:47:18.124Z,13.10
2023-04-01T10:49:47.505Z,12.90
2023-04-01T10:52:41.078Z,12.40
2023-04-01T10:55:28.304Z,12.20
2023-04-01T10:58:16.188Z,12.20
2023-04-01T11:01:01.442Z,12.10
2023-04-01T11:03:47.542Z,11.30
2023-04-01T11:06:43.726Z,11.30
2023-04-01T11:09:22.228Z,11.00
2023-04-01T11:11:48.768Z,10.80
2023-04-01T11:14:18.433Z,10.60
2023-04-01T11:16:54.165Z,10.60
2023-04-01T11:19:23.687Z,10.50
2023-04-01T11:22:10.520Z,10.30
2023-04-01T11:24:49.091Z,10.60
2023-04-01T11:27:15.798Z,10.80
2023-04-01T11:29:58.748Z,11.10
2023-04-01T11:32:26.540Z,10.90
2023-04-01T11:35:00.592Z,11.00
2023-04-01T11:37:27.131Z,11.40
2023-04-01T11:40:06.138Z,11.40
2023-04-01T11:42:46.073Z,11.40
2023-04-01T11:45:34.129Z,11.30
2023-04-01T11:48:10.039Z,11.30
2023-04-01T11:50:39.433Z,10.80
2023-04-01T11:53:12.112Z,10.20
2023-04-01T11:55:41.925Z,9.40
2023-04-01T11:58:23.966Z,9.10
2023-04-01T12:00:50.679Z,8.90
2023-04-01T12:03:17.616Z,8.60
2023-04-01T12:05:44.438Z,8.40
2023-04-01T12:08:13.755Z,8.30
2023-04-01T12:10:46.984Z,8.20
2023-04-01T12:13:20.634Z,8.20
2023-04-01T12:16:06.184Z,8.30
2023-04-01T12:18:51.393Z,8.20
2023-04-01T12:21:37.898Z,8.30
2023-04-01T12:24:04.524Z,8.30
2023-04-01T12:26:31.196Z,8.20
2023-04-01T12:29:08.911Z,8.10
2023-04-01T12:31:50.841Z,8.10
2023-04-01T12:34:46.823Z,7.90
2023-04-01T12:37:19.234Z,8.00
2023-04-01T12:39:48.771Z,8.00
2023-04-01T12:42:31.774Z,8.00
2023-04-01T12:45:16.996Z,7.90
2023-04-01T12:47:46.654Z,7.90
2023-04-01T12:50:22.233Z,8.00
2023-04-01T12:52:51.936Z,8.00
2023-04-01T12:55:37.490Z,8.00
2023-04-01T12:58:24.499Z,8.00
2023-04-01T13:00:57.228Z,8.00
2023-04-01T13:03:33.054Z,8.00
2023-04-01T13:06:05.973Z,8.10
2023-04-01T13:08:44.281Z,8.00
2023-04-01T13:11:20.154Z,8.00
2023-04-01T13:14:05.621Z,8.10
2023-04-01T13:16:36.481Z,8.10
2023-04-01T13:19:09.104Z,8.20
2023-04-01T13:21:55.296Z,8.20
2023-04-01T13:24:40.634Z,8.10
2023-04-01T13:27:10.317Z,8.10
2023-04-01T13:29:42.140Z,8.00
2023-04-01T13:32:14.643Z,8.00
2023-04-01T13:35:04.688Z,7.80
2023-04-01T13:37:45.835Z,7.70
2023-04-01T13:40:21.879Z,7.70
2023-04-01T13:42:50.442Z,7.70
2023-04-01T13:45:25.622Z,7.60
2023-04-01T13:47:52.220Z,7.60
2023-04-01T13:50:38.015Z,7.70
2023-04-01T13:53:17.335Z,7.80
2023-04-01T13:55:55.920Z,7.80
2023-04-01T13:58:28.247Z,7.90
2023-04-01T14:01:14.378Z,8.10
2023-04-01T14:03:50.017Z,8.20
2023-04-01T14:06:30.217Z,8.40
2023-04-01T14:09:09.207Z,8.20
2023-04-01T14:11:35.833Z,8.20
2023-04-01T14:14:17.736Z,8.30
2023-04-01T14:16:56.211Z,8.20
2023-04-01T14:19:52.350Z,8.20
2023-04-01T14:22:37.096Z,8.00
2023-04-01T14:25:19.181Z,8.20
2023-04-01T14:28:04.374Z,8.20
2023-04-01T14:30:33.726Z,8.30
2023-04-01T14:33:14.745Z,8.30
2023-04-01T14:35:51.260Z,8.30
2023-04-01T14:38:31.079Z,8.30
2023-04-01T14:41:01.344Z,8.30
2023-04-01T14:43:33.896Z,8.40
2023-04-01T14:46:19.473Z,8.30
2023-04-01T14:48:55.585Z,8.40
2023-04-01T14:51:25.007Z,8.30
2023-04-01T14:53:54.572Z,8.30
2023-04-01T14:56:37.794Z,8.10
2023-04-01T14:59:30.545Z,8.10
2023-04-01T15:02:32.711Z,8.00
2023-04-01T15:05:17.299Z,8.00
2023-04-01T15:22:46.477Z,8.90
2023-04-01T15:25:29.013Z,8.90
2023-04-01T15:27:59.130Z,9.10
2023-04-01T15:30:38.770Z,9.10
2023-04-01T15:33:05.382Z,9.20
2023-04-01T15:35:51.176Z,9.30
2023-04-01T15:38:24.781Z,9.40
2023-04-01T15:40:56.696Z,9.50
2023-04-01T15:43:26.094Z,9.40
2023-04-01T15:45:59.081Z,9.50
2023-04-01T15:48:44.698Z,9.40
2023-04-01T15:51:33.349Z,9.70
2023-04-01T15:54:18.564Z,9.80
2023-04-01T15:56:52.888Z,9.90
2023-04-01T15:59:22.470Z,9.90
2023-04-01T16:01:57.488Z,9.90
2023-04-01T16:04:24.142Z,9.90
2023-04-01T16:06:56.861Z,9.90
2023-04-01T16:09:34.325Z,9.80
2023-04-01T16:12:17.168Z,9.70
2023-04-01T16:15:19.121Z,9.80
2023-04-01T16:18:00.129Z,9.80
2023-04-01T16:20:36.560Z,9.70
2023-04-01T16:23:05.757Z,9.70
2023-04-01T16:25:36.055Z,9.70
2023-04-01T16:28:18.023Z,9.80
2023-04-01T16:30:51.401Z,9.70
2023-04-01T16:33:29.052Z,9.70
2023-04-01T16:36:11.538Z,9.50
2023-04-01T16:38:51.510Z,9.50
2023-04-01T16:41:36.861Z,9.50
2023-04-01T16:44:20.728Z,9.50
2023-04-01T16:46:49.638Z,9.40
2023-04-01T16:49:18.290Z,9.30
2023-04-01T16:52:03.460Z,9.30
2023-04-01T16:54:30.145Z,9.20
2023-04-01T16:57:09.008Z,9.20
2023-04-01T16:59:36.765Z,9.20
2023-04-01T17:02:10.087Z,9.30
2023-04-01T17:04:50.323Z,9.20
2023-04-01T17:07:29.332Z,9.30
2023-04-01T17:10:14.527Z,9.30
2023-04-01T17:12:59.859Z,9.30
2023-04-01T17:15:29.489Z,9.40
2023-04-01T17:18:02.369Z,9.40
2023-04-01T17:20:47.459Z,8.00
2023-04-01T17:23:25.058Z,9.30
2023-04-01T17:26:10.621Z,9.40
2023-04-01T17:28:40.431Z,9.40
2023-04-01T17:31:11.443Z,9.30
2023-04-01T17:33:54.172Z,9.40
2023-04-01T17:36:32.959Z,9.30
2023-04-01T17:39:02.755Z,9.30
2023-04-01T17:41:44.837Z,9.30
2023-04-01T17:44:23.042Z,9.30
2023-04-01T17:47:00.253Z,9.20
2023-04-01T17:49:45.884Z,9.20
2023-04-01T17:52:27.147Z,9.20
2023-04-01T17:55:12.588Z,9.20
2023-04-01T17:57:45.205Z,8.40
2023-04-01T18:00:22.976Z,9.90
2023-04-01T18:03:06.032Z,9.20
2023-04-01T18:05:38.459Z,9.20
2023-04-01T18:08:12.687Z,9.10
2023-04-01T18:10:51.441Z,9.20
2023-04-01T18:13:18.136Z,9.20
2023-04-01T18:15:49.032Z,9.20
2023-04-01T18:18:18.480Z,9.10
2023-04-01T18:20:55.446Z,9.10
2023-04-01T18:23:31.729Z,8.90
2023-04-01T18:26:05.243Z,8.80
2023-04-01T18:28:32.022Z,8.70
2023-04-01T18:31:06.833Z,8.60
2023-04-01T18:33:37.297Z,8.50
2023-04-01T18:36:10.400Z,8.40
2023-04-01T18:38:41.268Z,8.50
2023-04-01T18:41:17.093Z,8.30
2023-04-01T18:43:57.245Z,8.40
2023-04-01T18:46:31.229Z,8.30
2023-04-01T18:48:57.817Z,8.30
2023-04-01T18:51:43.124Z,8.30
2023-04-01T18:54:17.893Z,8.30
2023-04-01T18:56:45.854Z,8.30
2023-04-01T18:59:29.652Z,8.20
2023-04-01T19:02:15.502Z,8.20
2023-04-01T19:04:46.065Z,8.20
2023-04-01T19:07:31.162Z,8.20
2023-04-01T19:10:01.516Z,8.20
2023-04-01T19:12:35.454Z,8.20
2023-04-01T19:15:20.984Z,8.20
2023-04-01T19:17:47.584Z,8.30
2023-04-01T19:20:26.457Z,8.30
2023-04-01T19:23:18.292Z,8.30
2023-04-01T19:25:54.031Z,8.30
2023-04-01T19:28:23.470Z,8.40
2023-04-01T19:30:54.654Z,8.50
2023-04-01T19:33:29.455Z,8.40
2023-04-01T19:35:56.221Z,8.50
2023-04-01T19:38:40.228Z,8.50
2023-04-01T19:41:12.828Z,8.40
2023-04-01T19:43:42.451Z,8.30
2023-04-01T19:46:17.793Z,8.40
2023-04-01T19:48:56.591Z,8.40
2023-04-01T19:51:32.924Z,8.30
2023-04-01T19:54:11.792Z,8.30
2023-04-01T19:56:42.327Z,8.30
2023-04-01T19:59:17.569Z,8.20
2023-04-01T20:02:04.419Z,8.30
2023-04-01T20:04:41.448Z,8.10
2023-04-01T20:07:12.643Z,8.10
2023-04-01T20:09:39.190Z,8.00
2023-04-01T20:12:10.633Z,8.10
2023-04-01T20:14:42.592Z,8.00
2023-04-01T20:17:09.163Z,7.90
2023-04-01T20:19:37.405Z,7.90
2023-04-01T20:22:06.326Z,7.80
2023-04-01T20:24:43.851Z,7.80
2023-04-01T20:27:13.196Z,7.70
2023-04-01T20:29:44.196Z,7.70
2023-04-01T20:32:16.762Z,7.60
2023-04-01T20:35:01.730Z,7.60
2023-04-01T20:37:34.600Z,7.70
2023-04-01T20:40:20.078Z,7.60
2023-04-01T20:43:04.240Z,7.70
2023-04-01T20:45:42.861Z,8.20
2023-04-01T20:48:15.844Z,7.70
2023-04-01T20:50:42.373Z,7.70
2023-04-01T20:53:27.631Z,7.70
2023-04-01T20:55:59.765Z,7.80
2023-04-01T20:58:27.557Z,7.70
2023-04-01T21:01:14.550Z,7.80
2023-04-01T21:03:49.382Z,7.90
2023-04-01T21:06:19.066Z,7.80
2023-04-01T21:09:12.307Z,7.90
2023-04-01T21:11:49.120Z,7.90
2023-04-01T21:14:34.110Z,7.80
2023-04-01T21:17:33.339Z,7.90
2023-04-01T21:19:59.857Z,7.90
2023-04-01T21:22:34.434Z,7.90
2023-04-01T21:25:19.569Z,7.90
2023-04-01T21:27:51.717Z,8.00
2023-04-01T21:30:25.694Z,8.00
2023-04-01T21:32:52.292Z,8.10
2023-04-01T21:35:37.668Z,8.10
2023-04-01T21:38:24.589Z,8.10
2023-04-01T21:41:00.193Z,8.10
2023-04-01T21:43:29.911Z,8.00
2023-04-01T21:46:12.344Z,8.00
2023-04-01T21:48:48.437Z,8.10
2023-04-01T21:51:23.899Z,8.10
2023-04-01T21:53:56.650Z,8.00
2023-04-01T21:56:41.715Z,7.90
2023-04-01T21:59:27.033Z,7.90
2023-04-01T22:02:04.533Z,7.90
2023-04-01T22:04:44.766Z,8.00
2023-04-01T22:07:21.806Z,8.10
2023-04-01T22:09:51.477Z,8.00
2023-04-01T22:12:24.069Z,8.10
2023-04-01T22:14:57.627Z,8.10
2023-04-01T22:17:36.103Z,8.00
2023-04-01T22:20:13.949Z,7.90
2023-04-01T22:22:53.432Z,7.90
2023-04-01T22:25:24.873Z,8.00
2023-04-01T22:28:10.291Z,8.10
2023-04-01T22:30:41.823Z,8.10
2023-04-01T22:33:12.626Z,8.20
2023-04-01T22:35:43.442Z,8.10
2023-04-01T22:38:33.301Z,8.20
2023-04-01T22:41:09.912Z,8.10
2023-04-01T22:43:41.321Z,8.10
2023-04-01T22:46:27.512Z,8.20
2023-04-01T22:48:54.986Z,8.20
2023-04-01T22:51:41.188Z,8.10
2023-04-01T22:54:13.893Z,8.10
2023-04-01T22:56:42.550Z,8.10
2023-04-01T22:59:21.416Z,8.20
2023-04-01T23:01:50.470Z,8.00
2023-04-01T23:04:19.866Z,8.20
2023-04-01T23:06:51.032Z,8.20
2023-04-01T23:09:20.121Z,8.10
2023-04-01T23:11:55.278Z,8.00
2023-04-01T23:14:21.924Z,8.10
2023-04-01T23:16:54.540Z,8.10
2023-04-01T23:19:26.047Z,8.10
2023-04-01T23:22:02.858Z,8.20
2023-04-01T23:24:33.326Z,8.10
2023-04-01T23:27:09.504Z,8.10
2023-04-01T23:29:40.894Z,8.00
2023-04-01T23:32:14.618Z,8.00
2023-04-01T23:34:46.871Z,8.00
2023-04-01T23:37:17.028Z,8.00
2023-04-01T23:39:45.361Z,8.00
2023-04-01T23:42:14.725Z,7.90
2023-04-01T23:44:42.030Z,8.00
2023-04-01T23:47:11.137Z,8.00
2023-04-01T23:49:39.830Z,8.00
2023-04-01T23:52:12.230Z,8.00
2023-04-01T23:54:44.995Z,8.00
2023-04-01T23:57:13.325Z,8.10
2023-04-01T23:59:40.000Z,8.10
